createdAt,value
2022-10-18T00:01:02.496Z,5.13
2022-10-18T00:03:29.579Z,5.10
2022-10-18T00:05:56.674Z,4.22
2022-10-18T00:08:23.977Z,4.35
2022-10-18T00:10:50.703Z,4.20
2022-10-18T00:13:18.064Z,4.30
2022-10-18T00:15:59.796Z,3.92
2022-10-18T00:18:27.773Z,3.67
2022-10-18T00:21:07.698Z,3.75
2022-10-18T00:23:35.676Z,4.30
2022-10-18T00:26:13.774Z,4.45
2022-10-18T00:28:41.520Z,4.18
2022-10-18T00:31:16.834Z,3.92
2022-10-18T00:33:47.757Z,3.80
2022-10-18T00:36:14.993Z,4.60
2022-10-18T00:38:43.316Z,3.92
2022-10-18T00:41:13.353Z,4.18
2022-10-18T00:44:12.542Z,3.63
2022-10-18T00:46:49.667Z,4.20
2022-10-18T00:49:35.076Z,4.40
2022-10-18T00:52:11.452Z,4.43
2022-10-18T00:54:42.887Z,3.70
2022-10-18T00:57:10.689Z,4.05
2022-10-18T00:59:38.624Z,3.92
2022-10-18T01:02:07.512Z,4.03
2022-10-18T01:04:35.956Z,4.25
2022-10-18T01:07:26.106Z,4.20
2022-10-18T01:10:27.518Z,3.80
2022-10-18T01:14:13.021Z,4.63
2022-10-18T01:17:03.250Z,4.50
2022-10-18T01:20:07.069Z,4.65
2022-10-18T01:22:45.123Z,4.35
2022-10-18T01:25:37.957Z,5.00
2022-10-18T01:28:34.820Z,4.43
2022-10-18T01:31:15.585Z,5.03
2022-10-18T01:33:58.417Z,4.88
2022-10-18T01:36:37.180Z,4.65
2022-10-18T01:39:17.277Z,5.00
2022-10-18T01:41:46.570Z,5.10
2022-10-18T01:44:22.799Z,4.47
2022-10-18T01:46:56.819Z,3.88
2022-10-18T01:49:25.853Z,4.15
2022-10-18T01:51:55.403Z,4.88
2022-10-18T01:54:35.261Z,4.93
2022-10-18T01:57:28.333Z,4.57
2022-10-18T02:00:15.550Z,4.35
2022-10-18T02:03:06.763Z,5.30
2022-10-18T02:05:42.300Z,4.93
2022-10-18T02:08:45.732Z,4.40
2022-10-18T02:11:15.884Z,4.15
2022-10-18T02:13:53.784Z,4.20
2022-10-18T02:16:34.596Z,4.53
2022-10-18T02:19:20.281Z,4.68
2022-10-18T02:21:49.872Z,4.95
2022-10-18T02:24:19.269Z,4.03
2022-10-18T02:26:46.067Z,4.35
2022-10-18T02:29:13.620Z,4.88
2022-10-18T02:31:47.376Z,4.60
2022-10-18T02:34:28.403Z,4.47
2022-10-18T02:37:17.526Z,4.18
2022-10-18T02:40:08.384Z,4.47
2022-10-18T02:42:57.642Z,4.28
2022-10-18T02:45:25.997Z,4.25
2022-10-18T02:47:53.025Z,4.60
2022-10-18T02:50:19.830Z,4.60
2022-10-18T02:52:46.496Z,3.70
2022-10-18T02:55:13.289Z,3.90
2022-10-18T02:57:40.059Z,3.78
2022-10-18T03:00:08.448Z,4.15
2022-10-18T03:02:35.216Z,3.53
2022-10-18T03:05:02.140Z,4.20
2022-10-18T03:07:29.083Z,3.53
2022-10-18T03:09:55.924Z,3.50
2022-10-18T03:12:22.952Z,3.80
2022-10-18T03:14:52.213Z,4.20
2022-10-18T03:17:18.874Z,3.97
2022-10-18T03:19:48.174Z,3.85
2022-10-18T03:22:14.915Z,3.65
2022-10-18T03:24:41.644Z,4.38
2022-10-18T03:27:08.335Z,3.65
2022-10-18T03:29:34.995Z,4.03
2022-10-18T03:32:01.800Z,3.70
2022-10-18T03:34:28.469Z,3.83
2022-10-18T03:36:55.194Z,3.20
2022-10-18T03:39:21.889Z,3.28
2022-10-18T03:41:48.672Z,2.70
2022-10-18T03:44:15.364Z,3.25
2022-10-18T03:46:42.072Z,3.00
2022-10-18T03:49:08.779Z,2.95
2022-10-18T03:51:35.593Z,3.13
2022-10-18T03:54:02.435Z,2.67
2022-10-18T03:56:29.177Z,3.00
2022-10-18T03:58:57.229Z,3.03
2022-10-18T04:01:24.170Z,3.08
2022-10-18T04:03:50.919Z,3.97
2022-10-18T04:06:17.594Z,3.20
2022-10-18T04:08:44.286Z,3.50
2022-10-18T04:11:12.016Z,3.40
2022-10-18T04:13:39.235Z,3.60
2022-10-18T04:16:06.199Z,3.28
2022-10-18T04:18:32.970Z,3.33
2022-10-18T04:20:59.761Z,3.38
2022-10-18T04:23:26.485Z,3.72
2022-10-18T04:25:53.228Z,3.95
2022-10-18T04:28:20.187Z,5.82
2022-10-18T04:30:52.354Z,3.47
2022-10-18T04:33:21.570Z,3.38
2022-10-18T04:35:52.850Z,2.80
2022-10-18T04:38:21.057Z,2.92
2022-10-18T04:40:47.817Z,2.45
2022-10-18T04:43:14.540Z,2.75
2022-10-18T04:45:41.756Z,2.78
2022-10-18T04:48:08.600Z,2.50
2022-10-18T04:50:35.289Z,3.25
2022-10-18T04:53:02.027Z,4.75
2022-10-18T04:55:28.787Z,2.67
2022-10-18T04:57:55.459Z,3.00
2022-10-18T05:00:22.268Z,3.53
2022-10-18T05:02:49.069Z,2.45
2022-10-18T05:05:16.003Z,2.47
2022-10-18T05:07:45.503Z,2.67
2022-10-18T05:10:12.190Z,2.50
2022-10-18T05:12:38.936Z,2.50
2022-10-18T05:15:06.255Z,2.38
2022-10-18T05:17:32.923Z,2.42
2022-10-18T05:19:59.660Z,2.90
2022-10-18T05:22:26.316Z,2.53
2022-10-18T05:24:52.996Z,3.28
2022-10-18T05:27:19.935Z,3.83
2022-10-18T05:29:46.670Z,3.65
2022-10-18T05:32:13.710Z,3.20
2022-10-18T05:34:40.423Z,3.85
2022-10-18T05:37:07.326Z,4.40
2022-10-18T05:39:34.051Z,3.42
2022-10-18T05:42:00.740Z,3.67
2022-10-18T05:44:27.444Z,4.00
2022-10-18T05:46:54.173Z,3.10
2022-10-18T05:49:21.070Z,5.25
2022-10-18T05:51:47.821Z,4.25
2022-10-18T05:54:15.157Z,3.90
2022-10-18T05:56:42.257Z,4.90
2022-10-18T05:59:12.462Z,4.25
2022-10-18T06:01:43.272Z,3.70
2022-10-18T06:04:10.446Z,4.50
2022-10-18T06:06:39.076Z,4.15
2022-10-18T06:09:08.524Z,3.17
2022-10-18T06:11:36.647Z,2.95
2022-10-18T06:14:04.281Z,3.08
2022-10-18T06:16:32.649Z,3.10
2022-10-18T06:18:59.998Z,3.10
2022-10-18T06:21:27.445Z,2.60
2022-10-18T06:24:00.673Z,2.78
2022-10-18T06:26:28.413Z,2.67
2022-10-18T06:28:55.299Z,3.10
2022-10-18T06:31:23.236Z,3.05
2022-10-18T06:33:50.497Z,2.05
2022-10-18T06:36:23.928Z,1.80
2022-10-18T06:38:57.746Z,1.63
2022-10-18T06:41:24.607Z,2.20
2022-10-18T06:43:57.375Z,1.65
2022-10-18T06:46:26.611Z,3.08
2022-10-18T06:48:56.247Z,1.60
2022-10-18T06:51:23.014Z,1.75
2022-10-18T06:54:13.085Z,1.70
2022-10-18T06:56:42.637Z,1.60
2022-10-18T06:59:14.820Z,2.00
2022-10-18T07:01:43.499Z,2.33
2022-10-18T07:04:13.526Z,1.75
2022-10-18T07:06:42.215Z,2.38
2022-10-18T07:09:09.098Z,3.17
2022-10-18T07:11:35.954Z,2.40
2022-10-18T07:14:18.245Z,2.13
2022-10-18T07:16:47.065Z,1.65
2022-10-18T07:19:15.010Z,1.90
2022-10-18T07:21:51.969Z,2.38
2022-10-18T07:27:08.665Z,2.10
2022-10-18T07:29:42.676Z,1.92
2022-10-18T07:32:11.360Z,2.15
2022-10-18T07:34:46.336Z,2.30
2022-10-18T07:37:19.198Z,2.47
2022-10-18T07:39:45.881Z,3.25
2022-10-18T07:42:14.694Z,2.08
2022-10-18T07:44:42.572Z,2.28
2022-10-18T07:47:15.589Z,2.30
2022-10-18T07:49:42.291Z,3.47
2022-10-18T07:52:09.068Z,2.35
2022-10-18T07:54:35.776Z,1.95
2022-10-18T07:57:06.656Z,4.22
2022-10-18T07:59:34.529Z,2.75
2022-10-18T08:02:04.576Z,2.60
2022-10-18T08:04:35.394Z,2.22
2022-10-18T08:07:06.252Z,2.22
2022-10-18T08:09:33.994Z,2.03
2022-10-18T08:12:01.745Z,2.15
2022-10-18T08:14:30.647Z,2.33
2022-10-18T08:17:02.571Z,2.30
2022-10-18T08:19:29.525Z,1.98
2022-10-18T08:21:56.247Z,2.40
2022-10-18T08:24:23.078Z,2.85
2022-10-18T08:26:53.031Z,2.03
2022-10-18T08:29:24.843Z,2.35
2022-10-18T08:31:53.445Z,2.63
2022-10-18T08:34:20.241Z,2.50
2022-10-18T08:36:47.238Z,2.78
2022-10-18T08:39:15.958Z,2.70
2022-10-18T08:42:40.027Z,2.35
2022-10-18T08:45:12.924Z,2.05
2022-10-18T08:47:49.789Z,2.58
2022-10-18T08:50:27.350Z,2.97
2022-10-18T08:53:05.005Z,2.17
2022-10-18T08:56:16.813Z,2.42
2022-10-18T08:58:47.684Z,1.83
2022-10-18T09:01:50.008Z,1.70
2022-10-18T09:04:40.966Z,1.77
2022-10-18T09:07:33.860Z,1.08
2022-10-18T09:10:41.327Z,0.90
2022-10-18T09:14:09.431Z,0.98
2022-10-18T09:17:18.912Z,1.27
2022-10-18T09:20:15.386Z,0.93
2022-10-18T09:23:40.314Z,1.27
2022-10-18T09:26:24.622Z,0.95
2022-10-18T09:29:32.352Z,0.90
2022-10-18T09:32:41.704Z,0.80
2022-10-18T09:36:11.248Z,0.93
2022-10-18T09:38:49.559Z,0.90
2022-10-18T09:41:45.784Z,1.65
2022-10-18T09:44:24.128Z,1.30
2022-10-18T09:47:25.839Z,1.10
2022-10-18T09:50:06.139Z,0.77
2022-10-18T09:53:09.912Z,0.95
2022-10-18T09:56:05.909Z,0.75
2022-10-18T09:58:56.950Z,0.90
2022-10-18T10:01:33.576Z,0.73
2022-10-18T10:04:00.489Z,0.80
2022-10-18T10:06:54.085Z,0.90
2022-10-18T10:09:40.642Z,0.90
2022-10-18T10:12:27.186Z,0.95
2022-10-18T10:15:33.174Z,0.93
2022-10-18T10:18:31.135Z,0.70
2022-10-18T10:21:13.155Z,0.80
2022-10-18T10:23:51.043Z,0.88
2022-10-18T10:26:42.987Z,0.65
2022-10-18T10:29:53.593Z,0.80
2022-10-18T10:32:25.524Z,0.63
2022-10-18T10:34:53.082Z,0.95
2022-10-18T10:37:34.161Z,0.73
2022-10-18T10:40:21.852Z,0.90
2022-10-18T10:43:18.222Z,0.63
2022-10-18T10:46:14.991Z,0.90
2022-10-18T10:49:27.941Z,0.80
2022-10-18T10:52:08.252Z,1.45
2022-10-18T10:54:39.066Z,0.80
2022-10-18T10:57:23.132Z,1.02
2022-10-18T10:59:53.715Z,0.63
2022-10-18T11:02:32.115Z,1.00
2022-10-18T11:05:30.530Z,0.95
2022-10-18T11:08:03.489Z,0.98
2022-10-18T11:10:47.646Z,0.90
2022-10-18T11:13:53.348Z,1.05
2022-10-18T11:16:54.936Z,0.80
2022-10-18T11:20:05.263Z,0.60
2022-10-18T11:23:01.137Z,0.85
2022-10-18T11:25:51.942Z,0.90
2022-10-18T11:29:02.345Z,0.82
2022-10-18T11:31:53.712Z,0.90
2022-10-18T11:34:51.602Z,0.95
2022-10-18T11:37:57.650Z,0.77
2022-10-18T11:41:16.069Z,0.60
2022-10-18T11:44:30.866Z,0.60
2022-10-18T11:47:20.416Z,1.00
2022-10-18T11:50:01.429Z,1.20
2022-10-18T11:53:21.271Z,1.17
2022-10-18T11:56:15.175Z,1.17
2022-10-18T11:59:18.648Z,0.63
2022-10-18T12:02:33.350Z,0.55
2022-10-18T12:05:26.117Z,0.68
2022-10-18T12:08:05.315Z,0.70
2022-10-18T12:10:59.950Z,0.60
2022-10-18T12:13:36.364Z,0.80
2022-10-18T12:16:10.519Z,0.95
2022-10-18T12:19:08.848Z,0.60
2022-10-18T12:21:42.891Z,1.58
2022-10-18T12:24:24.851Z,0.73
2022-10-18T12:27:02.323Z,0.75
2022-10-18T12:30:01.930Z,0.50
2022-10-18T12:32:36.591Z,0.60
2022-10-18T12:35:15.614Z,0.70
2022-10-18T12:38:20.229Z,0.60
2022-10-18T12:40:54.345Z,0.50
2022-10-18T12:43:32.390Z,0.60
2022-10-18T12:46:13.570Z,0.70
2022-10-18T12:49:05.372Z,0.80
2022-10-18T12:51:34.223Z,0.70
2022-10-18T12:54:00.869Z,1.05
2022-10-18T12:56:41.637Z,0.98
2022-10-18T12:59:26.241Z,0.50
2022-10-18T13:01:54.094Z,0.73
2022-10-18T13:04:33.532Z,0.47
2022-10-18T13:07:41.068Z,0.52
2022-10-18T13:10:20.156Z,0.57
2022-10-18T13:13:38.803Z,0.65
2022-10-18T13:16:49.373Z,0.50
2022-10-18T13:19:38.541Z,1.02
2022-10-18T13:22:48.063Z,0.80
2022-10-18T13:25:46.013Z,0.88
2022-10-18T13:28:32.931Z,0.40
2022-10-18T13:31:25.905Z,0.88
2022-10-18T13:34:28.071Z,0.57
2022-10-18T13:37:24.463Z,0.50
2022-10-18T13:40:25.324Z,0.30
2022-10-18T13:42:55.363Z,0.90
2022-10-18T13:45:33.182Z,0.52
2022-10-18T13:48:35.263Z,0.50
2022-10-18T13:51:26.746Z,0.90
2022-10-18T13:54:54.043Z,0.80
2022-10-18T13:57:42.595Z,1.98
2022-10-18T14:00:50.084Z,1.33
2022-10-18T14:03:55.541Z,0.57
2022-10-18T14:06:40.284Z,0.40
2022-10-18T14:09:32.917Z,0.70
2022-10-18T14:12:40.590Z,0.70
2022-10-18T14:15:31.265Z,0.60
2022-10-18T14:18:28.996Z,0.60
2022-10-18T14:21:15.257Z,0.60
2022-10-18T14:23:45.787Z,0.50
2022-10-18T14:26:19.570Z,0.70
2022-10-18T14:29:05.398Z,0.60
2022-10-18T14:31:33.455Z,0.60
2022-10-18T14:34:00.996Z,0.77
2022-10-18T14:36:37.676Z,0.55
2022-10-18T14:39:16.363Z,0.70
2022-10-18T14:41:56.950Z,0.80
2022-10-18T14:44:34.698Z,0.82
2022-10-18T14:47:04.010Z,0.50
2022-10-18T14:49:31.352Z,0.50
2022-10-18T14:52:00.651Z,0.70
2022-10-18T14:54:37.184Z,0.63
2022-10-18T14:57:06.629Z,0.70
2022-10-18T14:59:44.859Z,0.40
2022-10-18T15:02:20.693Z,0.85
2022-10-18T15:04:56.635Z,0.50
2022-10-18T15:07:24.919Z,0.60
2022-10-18T15:09:52.214Z,0.60
2022-10-18T15:12:19.695Z,0.60
2022-10-18T15:14:48.444Z,0.98
2022-10-18T15:17:29.291Z,0.73
2022-10-18T15:20:18.606Z,0.68
2022-10-18T15:22:48.821Z,0.65
2022-10-18T15:25:35.934Z,0.90
2022-10-18T15:28:05.877Z,0.50
2022-10-18T15:30:42.899Z,1.05
2022-10-18T15:33:23.278Z,0.55
2022-10-18T15:35:53.381Z,1.23
2022-10-18T15:38:36.641Z,1.08
2022-10-18T15:41:36.435Z,0.50
2022-10-18T15:44:29.638Z,0.60
2022-10-18T15:47:12.401Z,0.80
2022-10-18T15:49:45.058Z,0.70
2022-10-18T15:52:41.558Z,1.13
2022-10-18T15:55:30.199Z,2.13
2022-10-18T15:58:25.469Z,1.27
2022-10-18T16:00:59.700Z,2.00
2022-10-18T16:03:28.074Z,1.33
2022-10-18T16:06:04.563Z,1.80
2022-10-18T16:08:33.231Z,1.60
2022-10-18T16:11:00.561Z,1.25
2022-10-18T16:13:27.639Z,1.20
2022-10-18T16:15:56.050Z,0.95
2022-10-18T16:18:25.257Z,1.00
2022-10-18T16:20:53.176Z,1.70
2022-10-18T16:23:28.239Z,1.45
2022-10-18T16:25:55.838Z,1.50
2022-10-18T16:28:25.578Z,1.00
2022-10-18T16:31:03.415Z,1.50
2022-10-18T16:33:31.076Z,1.40
2022-10-18T16:35:58.086Z,1.65
2022-10-18T16:38:36.489Z,1.70
2022-10-18T16:41:06.342Z,1.02
2022-10-18T16:43:34.731Z,1.30
2022-10-18T16:46:03.946Z,0.68
2022-10-18T16:48:30.729Z,1.00
2022-10-18T16:50:58.638Z,0.90
2022-10-18T16:53:26.209Z,1.15
2022-10-18T16:56:00.833Z,1.00
2022-10-18T16:58:30.215Z,1.05
2022-10-18T17:00:58.600Z,1.08
2022-10-18T17:03:26.536Z,0.70
2022-10-18T17:05:54.014Z,0.93
2022-10-18T17:08:26.151Z,1.40
2022-10-18T17:10:57.028Z,2.20
2022-10-18T17:13:26.217Z,2.17
2022-10-18T17:15:53.591Z,2.00
2022-10-18T17:18:30.491Z,2.72
2022-10-18T17:21:02.519Z,3.55
2022-10-18T17:23:30.694Z,2.72
2022-10-18T17:26:06.716Z,3.50
2022-10-18T17:28:41.920Z,3.40
2022-10-18T17:31:08.739Z,3.42
2022-10-18T17:33:35.984Z,4.13
2022-10-18T17:36:02.785Z,3.90
2022-10-18T17:38:29.618Z,4.57
2022-10-18T17:40:57.061Z,4.78
2022-10-18T17:43:24.509Z,4.00
2022-10-18T17:45:56.648Z,3.72
2022-10-18T17:48:29.092Z,3.78
2022-10-18T17:50:56.156Z,3.83
2022-10-18T17:53:26.198Z,4.47
2022-10-18T17:56:02.913Z,5.25
2022-10-18T17:58:31.261Z,4.45
2022-10-18T18:01:07.642Z,4.35
2022-10-18T18:03:37.112Z,5.95
2022-10-18T18:06:19.838Z,14.13
2022-10-18T18:08:49.153Z,13.23
2022-10-18T18:11:17.507Z,12.02
2022-10-18T18:13:44.327Z,10.77
2022-10-18T18:16:24.138Z,8.95
2022-10-18T18:18:53.493Z,5.25
2022-10-18T18:21:21.118Z,4.00
2022-10-18T18:23:50.014Z,2.90
2022-10-18T18:26:19.145Z,3.28
2022-10-18T18:28:46.033Z,2.88
2022-10-18T18:31:20.219Z,2.72
2022-10-18T18:33:46.891Z,2.72
2022-10-18T18:36:13.781Z,2.88
2022-10-18T18:38:44.836Z,3.15
2022-10-18T18:41:18.402Z,5.78
2022-10-18T18:44:01.884Z,7.25
2022-10-18T18:46:34.444Z,8.98
2022-10-18T18:49:01.228Z,8.98
2022-10-18T18:51:33.543Z,7.55
2022-10-18T18:54:00.332Z,6.82
2022-10-18T18:56:28.875Z,5.82
2022-10-18T18:58:59.736Z,6.38
2022-10-18T19:01:33.769Z,7.32
2022-10-18T19:04:05.284Z,7.00
2022-10-18T19:06:42.363Z,7.07
2022-10-18T19:09:18.836Z,7.35
2022-10-18T19:11:47.544Z,8.63
2022-10-18T19:14:15.782Z,9.35
2022-10-18T19:16:51.099Z,9.27
2022-10-18T19:19:21.729Z,8.80
2022-10-18T19:21:54.493Z,7.22
2022-10-18T19:24:23.708Z,7.82
2022-10-18T19:27:02.089Z,6.85
2022-10-18T19:29:40.848Z,6.60
2022-10-18T19:32:14.871Z,5.28
2022-10-18T19:34:42.237Z,4.75
2022-10-18T19:37:13.423Z,3.88
2022-10-18T19:39:40.162Z,3.00
2022-10-18T19:42:15.743Z,2.95
2022-10-18T19:44:45.387Z,2.72
2022-10-18T19:47:14.484Z,2.70
2022-10-18T19:49:44.300Z,2.75
2022-10-18T19:52:12.316Z,3.00
2022-10-18T19:54:39.511Z,3.20
2022-10-18T19:57:06.848Z,3.35
2022-10-18T19:59:35.776Z,3.53
2022-10-18T20:02:04.660Z,3.35
2022-10-18T20:04:34.662Z,3.42
2022-10-18T20:07:02.670Z,3.22
2022-10-18T20:09:29.713Z,2.90
2022-10-18T20:12:06.251Z,2.92
2022-10-18T20:14:32.984Z,5.03
2022-10-18T20:16:59.723Z,4.82
2022-10-18T20:19:30.705Z,4.25
2022-10-18T20:21:58.400Z,3.42
2022-10-18T20:24:25.299Z,3.92
2022-10-18T20:29:19.960Z,3.78
2022-10-18T20:31:47.503Z,4.10
2022-10-18T20:34:15.224Z,4.15
2022-10-18T20:36:42.837Z,4.07
2022-10-18T20:39:10.301Z,3.65
2022-10-18T20:41:41.609Z,4.10
2022-10-18T20:44:17.066Z,3.30
2022-10-18T20:46:44.551Z,4.18
2022-10-18T20:49:15.189Z,3.10
2022-10-18T20:51:42.485Z,3.25
2022-10-18T20:54:11.338Z,3.10
2022-10-18T20:56:39.680Z,3.72
2022-10-18T20:59:11.966Z,3.00
2022-10-18T21:01:42.094Z,3.08
2022-10-18T21:04:10.202Z,2.92
2022-10-18T21:06:42.251Z,3.33
2022-10-18T21:09:12.591Z,3.27
2022-10-18T21:11:43.221Z,3.30
2022-10-18T21:14:14.296Z,3.97
2022-10-18T21:16:41.124Z,3.85
2022-10-18T21:19:17.076Z,3.45
2022-10-18T21:21:47.338Z,4.18
2022-10-18T21:24:14.660Z,3.50
2022-10-18T21:26:41.517Z,3.77
2022-10-18T21:29:08.961Z,3.63
2022-10-18T21:31:39.271Z,3.20
2022-10-18T21:34:15.702Z,3.53
2022-10-18T21:36:44.839Z,3.57
2022-10-18T21:39:21.505Z,3.63
2022-10-18T21:41:49.444Z,3.70
2022-10-18T21:44:16.604Z,3.33
2022-10-18T21:46:43.911Z,4.07
2022-10-18T21:49:11.431Z,3.40
2022-10-18T21:51:39.614Z,3.30
2022-10-18T21:54:14.020Z,3.17
2022-10-18T21:56:41.145Z,3.43
2022-10-18T21:59:13.582Z,3.23
2022-10-18T22:01:41.395Z,3.37
2022-10-18T22:04:20.528Z,2.77
2022-10-18T22:06:47.319Z,3.27
2022-10-18T22:09:14.333Z,2.50
2022-10-18T22:11:45.727Z,2.13
2022-10-18T22:14:12.485Z,2.70
2022-10-18T22:16:39.204Z,2.40
2022-10-18T22:19:12.906Z,2.47
2022-10-18T22:21:39.616Z,2.60
2022-10-18T22:24:10.024Z,2.17
2022-10-18T22:26:40.629Z,3.03
2022-10-18T22:29:18.376Z,2.70
2022-10-18T22:31:49.838Z,3.57
2022-10-18T22:34:24.153Z,3.10
2022-10-18T22:36:51.129Z,3.67
2022-10-18T22:39:18.130Z,3.50
2022-10-18T22:41:46.378Z,2.90
2022-10-18T22:44:17.249Z,3.67
2022-10-18T22:46:46.139Z,4.00
2022-10-18T22:49:13.269Z,3.53
2022-10-18T22:51:41.025Z,3.80
2022-10-18T22:54:08.109Z,4.40
2022-10-18T22:56:35.185Z,4.33
2022-10-18T22:59:01.894Z,4.53
2022-10-18T23:01:28.700Z,4.33
2022-10-18T23:03:58.960Z,5.57
2022-10-18T23:06:35.826Z,6.20
2022-10-18T23:09:07.632Z,6.10
2022-10-18T23:11:35.646Z,7.60
2022-10-18T23:14:03.919Z,6.27
2022-10-18T23:16:31.232Z,5.77
2022-10-18T23:18:59.040Z,6.10
2022-10-18T23:21:28.984Z,6.90
2022-10-18T23:23:57.339Z,7.97
2022-10-18T23:26:27.606Z,6.00
2022-10-18T23:28:56.213Z,5.70
2022-10-18T23:31:29.846Z,5.13
2022-10-18T23:34:00.865Z,5.50
2022-10-18T23:36:28.305Z,4.97
2022-10-18T23:38:55.486Z,5.20
2022-10-18T23:41:22.727Z,4.50
2022-10-18T23:43:50.319Z,4.70
2022-10-18T23:46:18.848Z,4.63
2022-10-18T23:48:48.570Z,4.77
2022-10-18T23:51:16.861Z,4.63
2022-10-18T23:53:44.495Z,4.43
2022-10-18T23:56:15.314Z,5.00
2022-10-18T23:58:44.730Z,5.33
